sensor_id;sensor_type;location;lat;lon;timestamp;P1;durP1;ratioP1;P2;durP2;ratioP2
11189;SDS011;5651;50.926;4.718;2022-08-25T00:00:45;10.48;;;7.75;;
11189;SDS011;5651;50.926;4.718;2022-08-25T00:03:13;9.35;;;7.78;;
11189;SDS011;5651;50.926;4.718;2022-08-25T00:05:39;10.70;;;8.38;;
11189;SDS011;5651;50.926;4.718;2022-08-25T00:08:05;12.35;;;8.35;;
11189;SDS011;5651;50.926;4.718;2022-08-25T00:10:32;9.63;;;8.35;;
11189;SDS011;5651;50.926;4.718;2022-08-25T00:13:00;15.68;;;8.77;;
11189;SDS011;5651;50.926;4.718;2022-08-25T00:15:26;9.65;;;8.15;;
11189;SDS011;5651;50.926;4.718;2022-08-25T00:17:53;9.35;;;8.38;;
11189;SDS011;5651;50.926;4.718;2022-08-25T00:20:19;9.63;;;8.45;;
11189;SDS011;5651;50.926;4.718;2022-08-25T00:22:46;11.43;;;8.90;;
11189;SDS011;5651;50.926;4.718;2022-08-25T00:25:13;10.38;;;9.25;;
11189;SDS011;5651;50.926;4.718;2022-08-25T00:27:40;13.40;;;9.10;;
11189;SDS011;5651;50.926;4.718;2022-08-25T00:30:08;9.93;;;8.93;;
11189;SDS011;5651;50.926;4.718;2022-08-25T00:32:35;14.60;;;9.20;;
11189;SDS011;5651;50.926;4.718;2022-08-25T00:35:01;10.15;;;8.40;;
11189;SDS011;5651;50.926;4.718;2022-08-25T00:37:27;10.15;;;9.07;;
11189;SDS011;5651;50.926;4.718;2022-08-25T00:39:53;11.63;;;8.95;;
11189;SDS011;5651;50.926;4.718;2022-08-25T00:42:21;12.23;;;9.70;;
11189;SDS011;5651;50.926;4.718;2022-08-25T00:44:48;12.40;;;10.70;;
11189;SDS011;5651;50.926;4.718;2022-08-25T00:47:14;11.40;;;9.82;;
11189;SDS011;5651;50.926;4.718;2022-08-25T00:49:47;13.98;;;10.52;;
11189;SDS011;5651;50.926;4.718;2022-08-25T00:52:19;13.63;;;10.77;;
11189;SDS011;5651;50.926;4.718;2022-08-25T00:54:51;12.00;;;10.35;;
11189;SDS011;5651;50.926;4.718;2022-08-25T00:57:19;14.00;;;9.75;;
11189;SDS011;5651;50.926;4.718;2022-08-25T00:59:49;12.15;;;9.98;;
11189;SDS011;5651;50.926;4.718;2022-08-25T01:02:15;12.93;;;10.27;;
11189;SDS011;5651;50.926;4.718;2022-08-25T01:04:42;11.15;;;9.95;;
11189;SDS011;5651;50.926;4.718;2022-08-25T01:07:10;12.15;;;9.95;;
11189;SDS011;5651;50.926;4.718;2022-08-25T01:09:36;13.95;;;10.10;;
11189;SDS011;5651;50.926;4.718;2022-08-25T01:12:02;11.00;;;9.38;;
11189;SDS011;5651;50.926;4.718;2022-08-25T01:14:29;11.75;;;10.50;;
11189;SDS011;5651;50.926;4.718;2022-08-25T01:16:56;13.55;;;9.57;;
11189;SDS011;5651;50.926;4.718;2022-08-25T01:19:24;12.82;;;10.52;;
11189;SDS011;5651;50.926;4.718;2022-08-25T01:21:52;11.30;;;10.10;;
11189;SDS011;5651;50.926;4.718;2022-08-25T01:24:23;14.05;;;9.82;;
11189;SDS011;5651;50.926;4.718;2022-08-25T01:26:55;12.90;;;9.60;;
11189;SDS011;5651;50.926;4.718;2022-08-25T01:29:22;13.57;;;9.98;;
11189;SDS011;5651;50.926;4.718;2022-08-25T01:31:52;13.18;;;10.48;;
11189;SDS011;5651;50.926;4.718;2022-08-25T01:34:22;12.77;;;9.60;;
11189;SDS011;5651;50.926;4.718;2022-08-25T01:36:50;11.60;;;10.40;;
11189;SDS011;5651;50.926;4.718;2022-08-25T01:39:16;13.32;;;10.18;;
11189;SDS011;5651;50.926;4.718;2022-08-25T01:44:23;14.63;;;10.25;;
11189;SDS011;5651;50.926;4.718;2022-08-25T01:46:50;12.95;;;10.23;;
11189;SDS011;5651;50.926;4.718;2022-08-25T01:49:16;12.05;;;10.80;;
11189;SDS011;5651;50.926;4.718;2022-08-25T01:51:43;15.43;;;10.25;;
11189;SDS011;5651;50.926;4.718;2022-08-25T01:54:13;12.85;;;11.55;;
11189;SDS011;5651;50.926;4.718;2022-08-25T01:56:39;14.85;;;11.10;;
11189;SDS011;5651;50.926;4.718;2022-08-25T01:59:05;11.70;;;10.15;;
11189;SDS011;5651;50.926;4.718;2022-08-25T02:01:30;15.20;;;10.40;;
11189;SDS011;5651;50.926;4.718;2022-08-25T02:03:56;14.07;;;10.63;;
11189;SDS011;5651;50.926;4.718;2022-08-25T02:06:23;12.07;;;10.60;;
11189;SDS011;5651;50.926;4.718;2022-08-25T02:08:55;12.60;;;10.73;;
11189;SDS011;5651;50.926;4.718;2022-08-25T02:11:25;11.80;;;9.20;;
11189;SDS011;5651;50.926;4.718;2022-08-25T02:13:51;14.00;;;10.07;;
11189;SDS011;5651;50.926;4.718;2022-08-25T02:16:26;12.27;;;10.07;;
11189;SDS011;5651;50.926;4.718;2022-08-25T02:18:54;13.48;;;10.82;;
11189;SDS011;5651;50.926;4.718;2022-08-25T02:21:21;13.63;;;10.85;;
11189;SDS011;5651;50.926;4.718;2022-08-25T02:23:47;14.20;;;11.35;;
11189;SDS011;5651;50.926;4.718;2022-08-25T02:26:13;17.35;;;11.70;;
11189;SDS011;5651;50.926;4.718;2022-08-25T02:28:43;16.08;;;10.45;;
11189;SDS011;5651;50.926;4.718;2022-08-25T02:31:10;15.55;;;11.63;;
11189;SDS011;5651;50.926;4.718;2022-08-25T02:33:37;12.55;;;11.25;;
11189;SDS011;5651;50.926;4.718;2022-08-25T02:36:03;12.30;;;10.98;;
11189;SDS011;5651;50.926;4.718;2022-08-25T02:38:29;11.90;;;10.40;;
11189;SDS011;5651;50.926;4.718;2022-08-25T02:40:55;11.75;;;10.57;;
11189;SDS011;5651;50.926;4.718;2022-08-25T02:43:21;15.23;;;10.95;;
11189;SDS011;5651;50.926;4.718;2022-08-25T02:45:47;16.00;;;12.07;;
11189;SDS011;5651;50.926;4.718;2022-08-25T02:48:13;14.32;;;11.07;;
11189;SDS011;5651;50.926;4.718;2022-08-25T02:50:39;12.90;;;11.18;;
11189;SDS011;5651;50.926;4.718;2022-08-25T02:53:05;12.00;;;10.80;;
11189;SDS011;5651;50.926;4.718;2022-08-25T02:55:32;12.95;;;11.45;;
11189;SDS011;5651;50.926;4.718;2022-08-25T02:57:58;13.68;;;11.40;;
11189;SDS011;5651;50.926;4.718;2022-08-25T03:00:23;13.80;;;11.52;;
11189;SDS011;5651;50.926;4.718;2022-08-25T03:02:49;17.83;;;11.73;;
11189;SDS011;5651;50.926;4.718;2022-08-25T03:05:15;18.38;;;12.57;;
11189;SDS011;5651;50.926;4.718;2022-08-25T03:07:41;17.65;;;11.18;;
11189;SDS011;5651;50.926;4.718;2022-08-25T03:10:09;15.63;;;11.30;;
11189;SDS011;5651;50.926;4.718;2022-08-25T03:12:37;12.55;;;10.98;;
11189;SDS011;5651;50.926;4.718;2022-08-25T03:15:06;13.35;;;11.93;;
11189;SDS011;5651;50.926;4.718;2022-08-25T03:17:33;14.73;;;12.65;;
11189;SDS011;5651;50.926;4.718;2022-08-25T03:19:59;15.13;;;11.68;;
11189;SDS011;5651;50.926;4.718;2022-08-25T03:22:25;14.13;;;11.80;;
11189;SDS011;5651;50.926;4.718;2022-08-25T03:24:51;15.80;;;11.50;;
11189;SDS011;5651;50.926;4.718;2022-08-25T03:27:36;13.02;;;11.38;;
11189;SDS011;5651;50.926;4.718;2022-08-25T03:30:02;13.15;;;11.35;;
11189;SDS011;5651;50.926;4.718;2022-08-25T03:32:28;14.02;;;11.57;;
11189;SDS011;5651;50.926;4.718;2022-08-25T03:34:55;16.33;;;12.45;;
11189;SDS011;5651;50.926;4.718;2022-08-25T03:37:21;13.32;;;11.93;;
11189;SDS011;5651;50.926;4.718;2022-08-25T03:39:46;13.70;;;10.57;;
11189;SDS011;5651;50.926;4.718;2022-08-25T03:42:12;13.75;;;10.93;;
11189;SDS011;5651;50.926;4.718;2022-08-25T03:44:38;13.88;;;10.20;;
11189;SDS011;5651;50.926;4.718;2022-08-25T03:47:04;14.68;;;10.82;;
11189;SDS011;5651;50.926;4.718;2022-08-25T03:49:30;13.15;;;10.35;;
11189;SDS011;5651;50.926;4.718;2022-08-25T03:51:56;11.80;;;10.40;;
11189;SDS011;5651;50.926;4.718;2022-08-25T03:54:23;17.90;;;10.85;;
11189;SDS011;5651;50.926;4.718;2022-08-25T03:56:49;12.07;;;10.07;;
11189;SDS011;5651;50.926;4.718;2022-08-25T03:59:15;10.50;;;9.35;;
11189;SDS011;5651;50.926;4.718;2022-08-25T04:01:42;15.48;;;11.23;;
11189;SDS011;5651;50.926;4.718;2022-08-25T04:04:10;13.95;;;10.38;;
11189;SDS011;5651;50.926;4.718;2022-08-25T04:06:37;12.20;;;10.63;;
11189;SDS011;5651;50.926;4.718;2022-08-25T04:09:03;15.23;;;10.18;;
11189;SDS011;5651;50.926;4.718;2022-08-25T04:11:29;12.73;;;10.25;;
11189;SDS011;5651;50.926;4.718;2022-08-25T04:13:56;13.20;;;10.43;;
11189;SDS011;5651;50.926;4.718;2022-08-25T04:16:24;11.75;;;10.45;;
11189;SDS011;5651;50.926;4.718;2022-08-25T04:18:52;13.45;;;10.13;;
11189;SDS011;5651;50.926;4.718;2022-08-25T04:21:19;11.68;;;9.30;;
11189;SDS011;5651;50.926;4.718;2022-08-25T04:23:47;12.32;;;9.38;;
11189;SDS011;5651;50.926;4.718;2022-08-25T04:26:16;12.55;;;9.13;;
11189;SDS011;5651;50.926;4.718;2022-08-25T04:28:47;12.73;;;9.65;;
11189;SDS011;5651;50.926;4.718;2022-08-25T04:31:14;10.40;;;8.75;;
11189;SDS011;5651;50.926;4.718;2022-08-25T04:33:40;12.30;;;9.05;;
11189;SDS011;5651;50.926;4.718;2022-08-25T04:36:07;12.40;;;9.45;;
11189;SDS011;5651;50.926;4.718;2022-08-25T04:38:36;11.98;;;8.95;;
11189;SDS011;5651;50.926;4.718;2022-08-25T04:41:05;13.45;;;9.40;;
11189;SDS011;5651;50.926;4.718;2022-08-25T04:43:32;11.75;;;9.07;;
11189;SDS011;5651;50.926;4.718;2022-08-25T04:45:58;13.13;;;9.05;;
11189;SDS011;5651;50.926;4.718;2022-08-25T04:48:24;12.38;;;9.27;;
11189;SDS011;5651;50.926;4.718;2022-08-25T04:50:50;10.82;;;9.13;;
11189;SDS011;5651;50.926;4.718;2022-08-25T04:53:16;10.75;;;9.43;;
11189;SDS011;5651;50.926;4.718;2022-08-25T04:55:46;10.27;;;9.15;;
11189;SDS011;5651;50.926;4.718;2022-08-25T04:58:13;13.25;;;9.57;;
11189;SDS011;5651;50.926;4.718;2022-08-25T05:00:40;11.32;;;9.07;;
11189;SDS011;5651;50.926;4.718;2022-08-25T05:03:08;13.98;;;9.32;;
11189;SDS011;5651;50.926;4.718;2022-08-25T05:05:35;13.65;;;9.30;;
11189;SDS011;5651;50.926;4.718;2022-08-25T05:08:02;11.32;;;8.98;;
11189;SDS011;5651;50.926;4.718;2022-08-25T05:10:29;10.10;;;8.50;;
11189;SDS011;5651;50.926;4.718;2022-08-25T05:12:55;13.93;;;9.50;;
11189;SDS011;5651;50.926;4.718;2022-08-25T05:15:21;15.65;;;10.80;;
11189;SDS011;5651;50.926;4.718;2022-08-25T05:18:06;15.75;;;10.18;;
11189;SDS011;5651;50.926;4.718;2022-08-25T05:20:34;14.25;;;9.48;;
11189;SDS011;5651;50.926;4.718;2022-08-25T05:23:02;10.15;;;9.02;;
11189;SDS011;5651;50.926;4.718;2022-08-25T05:25:28;14.27;;;10.45;;
11189;SDS011;5651;50.926;4.718;2022-08-25T05:27:55;12.20;;;9.68;;
11189;SDS011;5651;50.926;4.718;2022-08-25T05:30:21;12.35;;;9.77;;
11189;SDS011;5651;50.926;4.718;2022-08-25T05:32:46;11.95;;;9.43;;
11189;SDS011;5651;50.926;4.718;2022-08-25T05:35:12;11.70;;;10.23;;
11189;SDS011;5651;50.926;4.718;2022-08-25T05:37:38;11.93;;;10.27;;
11189;SDS011;5651;50.926;4.718;2022-08-25T05:40:05;11.02;;;9.38;;
11189;SDS011;5651;50.926;4.718;2022-08-25T05:42:32;13.45;;;9.82;;
11189;SDS011;5651;50.926;4.718;2022-08-25T05:44:59;14.02;;;9.35;;
11189;SDS011;5651;50.926;4.718;2022-08-25T05:47:24;11.25;;;9.85;;
11189;SDS011;5651;50.926;4.718;2022-08-25T05:49:50;10.00;;;8.35;;
11189;SDS011;5651;50.926;4.718;2022-08-25T05:52:16;13.52;;;9.18;;
11189;SDS011;5651;50.926;4.718;2022-08-25T05:54:42;10.00;;;8.95;;
11189;SDS011;5651;50.926;4.718;2022-08-25T05:57:08;9.93;;;8.48;;
11189;SDS011;5651;50.926;4.718;2022-08-25T05:59:34;12.93;;;9.38;;
11189;SDS011;5651;50.926;4.718;2022-08-25T06:02:00;10.48;;;8.32;;
11189;SDS011;5651;50.926;4.718;2022-08-25T06:04:44;11.70;;;8.95;;
11189;SDS011;5651;50.926;4.718;2022-08-25T06:07:10;9.75;;;8.07;;
11189;SDS011;5651;50.926;4.718;2022-08-25T06:09:37;11.80;;;8.07;;
11189;SDS011;5651;50.926;4.718;2022-08-25T06:12:04;13.75;;;8.60;;
11189;SDS011;5651;50.926;4.718;2022-08-25T06:14:30;13.65;;;8.60;;
11189;SDS011;5651;50.926;4.718;2022-08-25T06:16:56;10.52;;;7.55;;
11189;SDS011;5651;50.926;4.718;2022-08-25T06:19:22;11.20;;;7.95;;
11189;SDS011;5651;50.926;4.718;2022-08-25T06:21:48;10.50;;;7.15;;
11189;SDS011;5651;50.926;4.718;2022-08-25T06:24:14;11.93;;;6.00;;
11189;SDS011;5651;50.926;4.718;2022-08-25T06:26:39;12.63;;;7.03;;
11189;SDS011;5651;50.926;4.718;2022-08-25T06:29:05;8.18;;;5.82;;
11189;SDS011;5651;50.926;4.718;2022-08-25T06:31:31;12.25;;;6.85;;
11189;SDS011;5651;50.926;4.718;2022-08-25T06:33:57;11.52;;;6.90;;
11189;SDS011;5651;50.926;4.718;2022-08-25T06:36:23;10.30;;;7.00;;
11189;SDS011;5651;50.926;4.718;2022-08-25T06:38:49;11.60;;;6.57;;
11189;SDS011;5651;50.926;4.718;2022-08-25T06:41:14;11.82;;;6.28;;
11189;SDS011;5651;50.926;4.718;2022-08-25T06:43:41;8.93;;;6.20;;
11189;SDS011;5651;50.926;4.718;2022-08-25T06:46:11;10.77;;;5.70;;
11189;SDS011;5651;50.926;4.718;2022-08-25T06:48:39;8.45;;;6.30;;
11189;SDS011;5651;50.926;4.718;2022-08-25T06:51:07;15.05;;;7.43;;
11189;SDS011;5651;50.926;4.718;2022-08-25T06:53:34;13.98;;;5.45;;
11189;SDS011;5651;50.926;4.718;2022-08-25T06:56:00;9.57;;;6.03;;
11189;SDS011;5651;50.926;4.718;2022-08-25T06:58:26;11.18;;;5.70;;
11189;SDS011;5651;50.926;4.718;2022-08-25T07:00:52;9.32;;;6.07;;
11189;SDS011;5651;50.926;4.718;2022-08-25T07:03:18;7.82;;;5.60;;
11189;SDS011;5651;50.926;4.718;2022-08-25T07:05:51;13.68;;;6.47;;
11189;SDS011;5651;50.926;4.718;2022-08-25T07:08:19;7.18;;;5.15;;
11189;SDS011;5651;50.926;4.718;2022-08-25T07:10:45;8.63;;;6.45;;
11189;SDS011;5651;50.926;4.718;2022-08-25T07:13:11;10.00;;;6.35;;
11189;SDS011;5651;50.926;4.718;2022-08-25T07:15:39;9.90;;;5.30;;
11189;SDS011;5651;50.926;4.718;2022-08-25T07:18:06;12.23;;;5.72;;
11189;SDS011;5651;50.926;4.718;2022-08-25T07:20:39;13.38;;;5.25;;
11189;SDS011;5651;50.926;4.718;2022-08-25T07:23:05;11.60;;;5.78;;
11189;SDS011;5651;50.926;4.718;2022-08-25T07:25:32;8.65;;;5.88;;
11189;SDS011;5651;50.926;4.718;2022-08-25T07:27:59;9.88;;;5.57;;
11189;SDS011;5651;50.926;4.718;2022-08-25T07:30:25;10.93;;;5.30;;
11189;SDS011;5651;50.926;4.718;2022-08-25T07:32:51;10.15;;;5.85;;
11189;SDS011;5651;50.926;4.718;2022-08-25T07:35:17;8.45;;;6.00;;
11189;SDS011;5651;50.926;4.718;2022-08-25T07:37:54;7.82;;;5.28;;
11189;SDS011;5651;50.926;4.718;2022-08-25T07:40:22;7.82;;;4.93;;
11189;SDS011;5651;50.926;4.718;2022-08-25T07:42:57;8.32;;;5.25;;
11189;SDS011;5651;50.926;4.718;2022-08-25T07:45:25;11.32;;;4.85;;
11189;SDS011;5651;50.926;4.718;2022-08-25T07:47:55;11.27;;;5.00;;
11189;SDS011;5651;50.926;4.718;2022-08-25T07:50:26;9.15;;;4.82;;
11189;SDS011;5651;50.926;4.718;2022-08-25T07:52:52;10.45;;;5.55;;
11189;SDS011;5651;50.926;4.718;2022-08-25T07:55:18;14.05;;;6.32;;
11189;SDS011;5651;50.926;4.718;2022-08-25T07:57:44;8.57;;;4.60;;
11189;SDS011;5651;50.926;4.718;2022-08-25T08:00:12;6.78;;;5.15;;
11189;SDS011;5651;50.926;4.718;2022-08-25T08:02:40;7.85;;;4.32;;
11189;SDS011;5651;50.926;4.718;2022-08-25T08:05:07;8.73;;;4.95;;
11189;SDS011;5651;50.926;4.718;2022-08-25T08:07:33;9.82;;;4.55;;
11189;SDS011;5651;50.926;4.718;2022-08-25T08:09:59;7.10;;;4.70;;
11189;SDS011;5651;50.926;4.718;2022-08-25T08:12:25;10.35;;;4.72;;
11189;SDS011;5651;50.926;4.718;2022-08-25T08:14:51;10.23;;;4.05;;
11189;SDS011;5651;50.926;4.718;2022-08-25T08:17:18;9.90;;;5.03;;
11189;SDS011;5651;50.926;4.718;2022-08-25T08:19:44;7.63;;;4.70;;
11189;SDS011;5651;50.926;4.718;2022-08-25T08:22:11;7.18;;;3.63;;
11189;SDS011;5651;50.926;4.718;2022-08-25T08:24:42;8.60;;;3.65;;
11189;SDS011;5651;50.926;4.718;2022-08-25T08:27:09;7.65;;;3.70;;
11189;SDS011;5651;50.926;4.718;2022-08-25T08:29:37;9.02;;;4.22;;
11189;SDS011;5651;50.926;4.718;2022-08-25T08:32:04;4.50;;;3.28;;
11189;SDS011;5651;50.926;4.718;2022-08-25T08:34:32;6.53;;;4.07;;
11189;SDS011;5651;50.926;4.718;2022-08-25T08:36:58;6.45;;;3.90;;
11189;SDS011;5651;50.926;4.718;2022-08-25T08:39:25;5.72;;;3.50;;
11189;SDS011;5651;50.926;4.718;2022-08-25T08:52:16;10.93;;;4.25;;
11189;SDS011;5651;50.926;4.718;2022-08-25T08:54:49;8.45;;;3.83;;
11189;SDS011;5651;50.926;4.718;2022-08-25T08:57:24;6.07;;;3.78;;
11189;SDS011;5651;50.926;4.718;2022-08-25T08:59:53;7.70;;;4.57;;
11189;SDS011;5651;50.926;4.718;2022-08-25T09:02:36;7.55;;;3.83;;
11189;SDS011;5651;50.926;4.718;2022-08-25T09:05:08;6.15;;;3.05;;
11189;SDS011;5651;50.926;4.718;2022-08-25T09:07:39;13.00;;;4.18;;
11189;SDS011;5651;50.926;4.718;2022-08-25T09:10:17;6.47;;;3.90;;
11189;SDS011;5651;50.926;4.718;2022-08-25T09:16:23;7.55;;;3.40;;
11189;SDS011;5651;50.926;4.718;2022-08-25T09:21:27;6.18;;;3.15;;
11189;SDS011;5651;50.926;4.718;2022-08-25T09:24:06;8.52;;;3.80;;
11189;SDS011;5651;50.926;4.718;2022-08-25T09:26:58;9.38;;;3.97;;
11189;SDS011;5651;50.926;4.718;2022-08-25T09:29:49;5.70;;;3.42;;
11189;SDS011;5651;50.926;4.718;2022-08-25T09:32:17;8.45;;;3.00;;
11189;SDS011;5651;50.926;4.718;2022-08-25T09:34:43;5.10;;;3.20;;
11189;SDS011;5651;50.926;4.718;2022-08-25T09:37:12;7.93;;;3.58;;
11189;SDS011;5651;50.926;4.718;2022-08-25T09:39:38;8.93;;;3.60;;
11189;SDS011;5651;50.926;4.718;2022-08-25T09:42:03;20.27;;;3.60;;
11189;SDS011;5651;50.926;4.718;2022-08-25T09:44:31;5.97;;;3.20;;
11189;SDS011;5651;50.926;4.718;2022-08-25T09:49:45;7.53;;;3.45;;
11189;SDS011;5651;50.926;4.718;2022-08-25T09:55:38;6.88;;;2.38;;
11189;SDS011;5651;50.926;4.718;2022-08-25T09:57:54;5.43;;;2.90;;
11189;SDS011;5651;50.926;4.718;2022-08-25T10:00:26;5.63;;;3.33;;
11189;SDS011;5651;50.926;4.718;2022-08-25T10:05:29;6.25;;;2.80;;
11189;SDS011;5651;50.926;4.718;2022-08-25T10:08:03;5.25;;;2.65;;
11189;SDS011;5651;50.926;4.718;2022-08-25T10:10:39;4.38;;;2.70;;
11189;SDS011;5651;50.926;4.718;2022-08-25T10:13:14;4.55;;;2.63;;
11189;SDS011;5651;50.926;4.718;2022-08-25T10:15:44;8.68;;;3.42;;
11189;SDS011;5651;50.926;4.718;2022-08-25T10:18:21;6.05;;;3.80;;
11189;SDS011;5651;50.926;4.718;2022-08-25T10:20:59;5.88;;;2.90;;
11189;SDS011;5651;50.926;4.718;2022-08-25T10:23:35;8.20;;;3.58;;
11189;SDS011;5651;50.926;4.718;2022-08-25T10:26:10;6.55;;;3.03;;
11189;SDS011;5651;50.926;4.718;2022-08-25T10:34:02;5.70;;;2.75;;
11189;SDS011;5651;50.926;4.718;2022-08-25T10:36:49;10.23;;;3.95;;
11189;SDS011;5651;50.926;4.718;2022-08-25T10:39:35;4.57;;;2.95;;
11189;SDS011;5651;50.926;4.718;2022-08-25T10:42:08;5.57;;;2.47;;
11189;SDS011;5651;50.926;4.718;2022-08-25T10:44:55;2.95;;;2.60;;
11189;SDS011;5651;50.926;4.718;2022-08-25T10:51:30;4.05;;;2.42;;
11189;SDS011;5651;50.926;4.718;2022-08-25T10:54:44;4.22;;;2.92;;
11189;SDS011;5651;50.926;4.718;2022-08-25T11:05:30;7.30;;;2.80;;
11189;SDS011;5651;50.926;4.718;2022-08-25T11:08:05;4.63;;;2.50;;
11189;SDS011;5651;50.926;4.718;2022-08-25T11:10:39;5.00;;;2.45;;
11189;SDS011;5651;50.926;4.718;2022-08-25T11:13:13;4.65;;;2.70;;
11189;SDS011;5651;50.926;4.718;2022-08-25T11:15:53;3.47;;;2.45;;
11189;SDS011;5651;50.926;4.718;2022-08-25T11:18:25;8.38;;;3.13;;
11189;SDS011;5651;50.926;4.718;2022-08-25T11:23:35;6.72;;;2.67;;
11189;SDS011;5651;50.926;4.718;2022-08-25T11:26:09;5.80;;;3.05;;
11189;SDS011;5651;50.926;4.718;2022-08-25T11:31:27;6.85;;;2.58;;
11189;SDS011;5651;50.926;4.718;2022-08-25T11:33:54;3.22;;;2.50;;
11189;SDS011;5651;50.926;4.718;2022-08-25T11:36:24;5.32;;;2.55;;
11189;SDS011;5651;50.926;4.718;2022-08-25T11:39:06;7.75;;;3.03;;
11189;SDS011;5651;50.926;4.718;2022-08-25T11:44:46;4.45;;;2.60;;
11189;SDS011;5651;50.926;4.718;2022-08-25T11:50:02;3.63;;;2.40;;
11189;SDS011;5651;50.926;4.718;2022-08-25T11:55:06;4.97;;;2.45;;
11189;SDS011;5651;50.926;4.718;2022-08-25T11:57:41;5.40;;;2.70;;
11189;SDS011;5651;50.926;4.718;2022-08-25T12:00:13;7.70;;;2.70;;
11189;SDS011;5651;50.926;4.718;2022-08-25T12:10:14;4.00;;;2.50;;
11189;SDS011;5651;50.926;4.718;2022-08-25T12:17:57;3.85;;;2.60;;
11189;SDS011;5651;50.926;4.718;2022-08-25T12:23:25;6.78;;;2.50;;
11189;SDS011;5651;50.926;4.718;2022-08-25T12:25:57;4.90;;;2.53;;
11189;SDS011;5651;50.926;4.718;2022-08-25T12:31:04;3.83;;;2.65;;
11189;SDS011;5651;50.926;4.718;2022-08-25T12:36:27;5.85;;;2.58;;
11189;SDS011;5651;50.926;4.718;2022-08-25T12:39:06;5.57;;;2.67;;
11189;SDS011;5651;50.926;4.718;2022-08-25T12:41:50;6.47;;;3.03;;
11189;SDS011;5651;50.926;4.718;2022-08-25T12:49:43;5.18;;;2.33;;
11189;SDS011;5651;50.926;4.718;2022-08-25T12:52:31;3.97;;;2.83;;
11189;SDS011;5651;50.926;4.718;2022-08-25T12:55:00;4.30;;;2.90;;
11189;SDS011;5651;50.926;4.718;2022-08-25T12:57:53;4.57;;;2.80;;
11189;SDS011;5651;50.926;4.718;2022-08-25T13:00:24;4.72;;;2.60;;
11189;SDS011;5651;50.926;4.718;2022-08-25T13:08:48;6.07;;;3.00;;
11189;SDS011;5651;50.926;4.718;2022-08-25T13:11:20;3.73;;;2.40;;
11189;SDS011;5651;50.926;4.718;2022-08-25T13:16:19;4.78;;;2.38;;
11189;SDS011;5651;50.926;4.718;2022-08-25T13:18:47;5.32;;;2.72;;
11189;SDS011;5651;50.926;4.718;2022-08-25T13:21:15;8.13;;;2.58;;
11189;SDS011;5651;50.926;4.718;2022-08-25T13:24:10;3.70;;;2.55;;
11189;SDS011;5651;50.926;4.718;2022-08-25T13:26:44;7.03;;;2.85;;
11189;SDS011;5651;50.926;4.718;2022-08-25T13:29:18;2.42;;;2.13;;
11189;SDS011;5651;50.926;4.718;2022-08-25T13:32:06;4.53;;;2.65;;
11189;SDS011;5651;50.926;4.718;2022-08-25T13:34:37;5.40;;;2.25;;
11189;SDS011;5651;50.926;4.718;2022-08-25T13:37:08;3.88;;;2.35;;
11189;SDS011;5651;50.926;4.718;2022-08-25T13:42:32;4.60;;;2.45;;
11189;SDS011;5651;50.926;4.718;2022-08-25T13:44:58;5.80;;;2.25;;
11189;SDS011;5651;50.926;4.718;2022-08-25T13:47:31;6.00;;;3.10;;
11189;SDS011;5651;50.926;4.718;2022-08-25T13:53:04;3.50;;;2.60;;
11189;SDS011;5651;50.926;4.718;2022-08-25T13:55:51;8.88;;;2.50;;
11189;SDS011;5651;50.926;4.718;2022-08-25T13:58:20;7.38;;;2.38;;
11189;SDS011;5651;50.926;4.718;2022-08-25T14:01:07;4.40;;;2.08;;
11189;SDS011;5651;50.926;4.718;2022-08-25T14:03:37;4.03;;;2.42;;
11189;SDS011;5651;50.926;4.718;2022-08-25T14:06:09;4.25;;;2.40;;
11189;SDS011;5651;50.926;4.718;2022-08-25T14:08:39;3.58;;;2.35;;
11189;SDS011;5651;50.926;4.718;2022-08-25T14:11:09;4.38;;;2.38;;
11189;SDS011;5651;50.926;4.718;2022-08-25T14:13:38;3.42;;;2.30;;
11189;SDS011;5651;50.926;4.718;2022-08-25T14:16:13;4.80;;;2.10;;
11189;SDS011;5651;50.926;4.718;2022-08-25T14:18:48;5.18;;;2.42;;
11189;SDS011;5651;50.926;4.718;2022-08-25T14:21:16;4.13;;;2.28;;
11189;SDS011;5651;50.926;4.718;2022-08-25T14:23:44;3.60;;;2.13;;
11189;SDS011;5651;50.926;4.718;2022-08-25T14:26:10;5.80;;;2.25;;
11189;SDS011;5651;50.926;4.718;2022-08-25T14:28:36;5.43;;;2.50;;
11189;SDS011;5651;50.926;4.718;2022-08-25T14:31:13;3.80;;;2.00;;
11189;SDS011;5651;50.926;4.718;2022-08-25T14:33:50;6.10;;;2.40;;
11189;SDS011;5651;50.926;4.718;2022-08-25T14:36:20;3.10;;;2.30;;
11189;SDS011;5651;50.926;4.718;2022-08-25T14:38:45;6.03;;;2.90;;
11189;SDS011;5651;50.926;4.718;2022-08-25T14:41:11;8.95;;;2.50;;
11189;SDS011;5651;50.926;4.718;2022-08-25T14:43:37;4.18;;;2.30;;
11189;SDS011;5651;50.926;4.718;2022-08-25T14:46:06;4.95;;;2.65;;
11189;SDS011;5651;50.926;4.718;2022-08-25T14:48:41;5.18;;;2.22;;
11189;SDS011;5651;50.926;4.718;2022-08-25T14:51:09;6.03;;;2.38;;
11189;SDS011;5651;50.926;4.718;2022-08-25T14:53:38;7.22;;;2.40;;
11189;SDS011;5651;50.926;4.718;2022-08-25T14:56:06;6.15;;;2.45;;
11189;SDS011;5651;50.926;4.718;2022-08-25T14:58:32;6.25;;;2.22;;
11189;SDS011;5651;50.926;4.718;2022-08-25T15:00:58;3.30;;;2.15;;
11189;SDS011;5651;50.926;4.718;2022-08-25T15:03:26;5.15;;;2.17;;
11189;SDS011;5651;50.926;4.718;2022-08-25T15:05:55;4.32;;;2.50;;
11189;SDS011;5651;50.926;4.718;2022-08-25T15:08:21;9.43;;;3.63;;
11189;SDS011;5651;50.926;4.718;2022-08-25T15:11:05;7.85;;;4.75;;
11189;SDS011;5651;50.926;4.718;2022-08-25T15:13:31;8.38;;;4.22;;
11189;SDS011;5651;50.926;4.718;2022-08-25T15:15:57;6.88;;;3.92;;
11189;SDS011;5651;50.926;4.718;2022-08-25T15:18:23;8.73;;;4.38;;
11189;SDS011;5651;50.926;4.718;2022-08-25T15:20:50;12.25;;;4.60;;
11189;SDS011;5651;50.926;4.718;2022-08-25T15:23:16;11.07;;;4.68;;
11189;SDS011;5651;50.926;4.718;2022-08-25T15:25:43;8.18;;;4.18;;
11189;SDS011;5651;50.926;4.718;2022-08-25T15:28:11;9.60;;;5.32;;
11189;SDS011;5651;50.926;4.718;2022-08-25T15:30:38;7.40;;;4.97;;
11189;SDS011;5651;50.926;4.718;2022-08-25T15:33:04;10.68;;;5.22;;
11189;SDS011;5651;50.926;4.718;2022-08-25T15:35:29;11.82;;;5.43;;
11189;SDS011;5651;50.926;4.718;2022-08-25T15:37:55;14.70;;;5.53;;
11189;SDS011;5651;50.926;4.718;2022-08-25T15:40:21;11.13;;;5.10;;
11189;SDS011;5651;50.926;4.718;2022-08-25T15:42:47;8.55;;;4.93;;
11189;SDS011;5651;50.926;4.718;2022-08-25T15:45:12;8.52;;;4.35;;
11189;SDS011;5651;50.926;4.718;2022-08-25T15:47:38;11.73;;;5.72;;
11189;SDS011;5651;50.926;4.718;2022-08-25T15:50:06;9.15;;;4.90;;
11189;SDS011;5651;50.926;4.718;2022-08-25T15:52:33;13.70;;;7.40;;
11189;SDS011;5651;50.926;4.718;2022-08-25T15:54:59;9.27;;;4.53;;
11189;SDS011;5651;50.926;4.718;2022-08-25T15:57:26;23.38;;;10.40;;
11189;SDS011;5651;50.926;4.718;2022-08-25T15:59:52;8.95;;;4.50;;
11189;SDS011;5651;50.926;4.718;2022-08-25T16:02:18;13.80;;;7.18;;
11189;SDS011;5651;50.926;4.718;2022-08-25T16:04:44;14.13;;;5.72;;
11189;SDS011;5651;50.926;4.718;2022-08-25T16:07:10;14.23;;;4.78;;
11189;SDS011;5651;50.926;4.718;2022-08-25T16:09:36;10.38;;;5.00;;
11189;SDS011;5651;50.926;4.718;2022-08-25T16:12:01;16.33;;;7.90;;
11189;SDS011;5651;50.926;4.718;2022-08-25T16:14:27;12.05;;;7.57;;
11189;SDS011;5651;50.926;4.718;2022-08-25T16:16:54;13.38;;;9.50;;
11189;SDS011;5651;50.926;4.718;2022-08-25T16:19:20;10.40;;;7.40;;
11189;SDS011;5651;50.926;4.718;2022-08-25T16:21:45;9.00;;;6.75;;
11189;SDS011;5651;50.926;4.718;2022-08-25T16:24:11;44.25;;;41.15;;
11189;SDS011;5651;50.926;4.718;2022-08-25T16:26:37;10.95;;;7.47;;
11189;SDS011;5651;50.926;4.718;2022-08-25T16:29:09;13.20;;;6.70;;
11189;SDS011;5651;50.926;4.718;2022-08-25T16:31:36;17.45;;;7.50;;
11189;SDS011;5651;50.926;4.718;2022-08-25T16:34:02;11.82;;;7.15;;
11189;SDS011;5651;50.926;4.718;2022-08-25T16:36:28;12.35;;;7.85;;
11189;SDS011;5651;50.926;4.718;2022-08-25T16:38:55;10.10;;;7.20;;
11189;SDS011;5651;50.926;4.718;2022-08-25T16:41:26;16.30;;;7.32;;